Time;durP1;ratioP1;P1;durP2;ratioP2;P2;SDS_P1;SDS_P2;PMS_P1;PMS_P2;Temp;Humidity;BMP_temperature;BMP_pressure;BME280_temperature;BME280_humidity;BME280_pressure;Samples;Min_cycle;Max_cycle;Signal;HPM_P1;HPM_P2
2023/05/18 00:01:02;;;;;;;;;;;;;;;7.04;86.69;102747.22;10581938;28;19959;-64
2023/05/18 00:06:06;;;;;;;;;;;;;;;7.21;84.90;102743.53;10567319;28;19924;-63
2023/05/18 00:11:08;;;;;;;;;;;;;;;6.92;86.28;102749.09;10567038;28;19939;-64
2023/05/18 00:16:12;;;;;;;;;;;;;;;6.73;88.80;102751.03;10542233;28;20294;-64
2023/05/18 00:21:15;;;;;;;;;;;;;;;6.95;87.58;102752.50;10541114;28;20354;-64
2023/05/18 00:26:17;;;;;;;;;;;;;;;6.79;87.27;102750.94;10541735;28;19924;-64
2023/05/18 00:31:19;;;;;;;;;;;;;;;6.70;88.77;102744.09;10539795;28;20366;-64
2023/05/18 00:36:21;;;;;;;;;;;;;;;6.49;89.69;102758.19;10541471;28;19974;-64
2023/05/18 00:41:25;;;;;;;;;;;;;;;6.52;90.14;102755.53;10540935;28;19924;-64
2023/05/18 00:46:27;;;;;;;;;;;;;;;6.42;91.59;102754.78;10541656;28;19924;-64
2023/05/18 00:51:30;;;;;;;;;;;;;;;6.29;91.73;102767.00;10540089;28;19924;-64
2023/05/18 00:56:33;;;;;;;;;;;;;;;6.32;91.00;102767.00;10539828;28;19932;-64
2023/05/18 01:01:36;;;;;;;;;;;;;;;6.31;92.23;102767.84;10546159;28;19978;-64
2023/05/18 01:06:39;;;;;;;;;;;;;;;6.17;93.59;102758.44;10540909;28;19970;-64
2023/05/18 01:11:51;;;;;;;;;;;;;;;6.09;93.73;102758.50;10540266;28;19975;-64
2023/05/18 01:17:11;;;;;;;;;;;;;;;6.01;95.06;102761.16;10540160;28;20007;-64
2023/05/18 01:22:40;;;;;;;;;;;;;;;6.06;95.14;102766.31;10552838;28;19978;-64
2023/05/18 01:27:45;;;;;;;;;;;;;;;6.08;93.55;102775.81;10537209;28;19924;-64
2023/05/18 01:32:47;;;;;;;;;;;;;;;5.92;94.88;102769.00;10521962;28;19930;-64
2023/05/18 01:37:49;;;;;;;;;;;;;;;5.70;96.64;102768.22;10540377;28;19924;-64
2023/05/18 01:42:52;;;;;;;;;;;;;;;5.84;96.76;102774.22;10538340;28;19928;-64
2023/05/18 01:47:55;;;;;;;;;;;;;;;6.03;96.37;102779.34;10522885;28;19924;-63
2023/05/18 01:53:18;;;;;;;;;;;;;;;5.87;96.33;102773.34;10529864;28;19924;-64
2023/05/18 01:58:20;;;;;;;;;;;;;;;5.88;96.87;102775.06;10547599;28;20295;-64
2023/05/18 02:03:22;;;;;;;;;;;;;;;5.84;97.26;102775.97;10529555;28;19924;-64
2023/05/18 02:08:25;;;;;;;;;;;;;;;5.90;96.59;102770.72;10547954;28;19993;-64
2023/05/18 02:13:27;;;;;;;;;;;;;;;5.88;96.96;102773.31;10545174;28;20375;-64
2023/05/18 02:18:32;;;;;;;;;;;;;;;5.72;98.07;102767.34;10547483;28;19924;-64
2023/05/18 02:23:35;;;;;;;;;;;;;;;5.72;98.95;102776.91;10559690;28;20335;-64
2023/05/18 02:28:38;;;;;;;;;;;;;;;5.72;98.42;102779.50;10547154;28;19924;-64
2023/05/18 02:33:41;;;;;;;;;;;;;;;5.81;98.81;102770.78;10545920;28;19924;-64
2023/05/18 02:38:43;;;;;;;;;;;;;;;5.67;98.29;102765.66;10545659;28;20286;-64
2023/05/18 02:43:45;;;;;;;;;;;;;;;5.73;97.52;102757.81;10544779;28;19924;-64
2023/05/18 02:48:47;;;;;;;;;;;;;;;5.75;98.54;102758.69;10545726;28;19930;-64
2023/05/18 02:53:50;;;;;;;;;;;;;;;5.68;98.21;102760.47;10545222;28;19977;-64
2023/05/18 02:58:56;;;;;;;;;;;;;;;5.49;99.87;102761.41;10544805;28;19935;-63
2023/05/18 03:03:59;;;;;;;;;;;;;;;5.49;99.85;102753.63;10544161;28;19928;-64
2023/05/18 03:09:01;;;;;;;;;;;;;;;5.37;100.00;102752.78;10545626;28;19924;-64
2023/05/18 03:14:04;;;;;;;;;;;;;;;5.42;100.00;102751.94;10543824;28;20290;-64
2023/05/18 03:19:06;;;;;;;;;;;;;;;5.56;99.90;102751.00;10544694;28;19924;-64
2023/05/18 03:24:08;;;;;;;;;;;;;;;5.61;98.79;102756.16;10543774;28;19925;-64
2023/05/18 03:29:12;;;;;;;;;;;;;;;5.46;98.54;102764.03;10544864;28;19924;-64
2023/05/18 03:34:14;;;;;;;;;;;;;;;5.38;100.00;102758.88;10542935;28;19924;-64
2023/05/18 03:39:17;;;;;;;;;;;;;;;5.45;100.00;102757.13;10543755;28;20286;-64
2023/05/18 03:44:20;;;;;;;;;;;;;;;5.35;100.00;102767.53;10542509;28;19924;-64
2023/05/18 03:49:22;;;;;;;;;;;;;;;5.36;100.00;102766.69;10543368;28;20054;-64
2023/05/18 03:54:24;;;;;;;;;;;;;;;5.56;100.00;102770.91;10542239;28;19947;-64
2023/05/18 03:59:26;;;;;;;;;;;;;;;5.53;99.30;102765.72;10543595;28;19930;-64
2023/05/18 04:04:29;;;;;;;;;;;;;;;5.48;100.00;102773.56;10542419;28;19930;-64
2023/05/18 04:09:31;;;;;;;;;;;;;;;5.59;100.00;102771.75;10541222;28;19951;-64
2023/05/18 04:14:34;;;;;;;;;;;;;;;5.75;99.88;102769.94;10523904;28;19924;-64
2023/05/18 04:19:36;;;;;;;;;;;;;;;5.74;100.00;102776.00;10542182;28;19946;-64
2023/05/18 04:24:40;;;;;;;;;;;;;;;6.00;100.00;102781.94;10540936;28;19924;-64
2023/05/18 04:29:42;;;;;;;;;;;;;;;6.08;100.00;102788.81;10540449;28;19950;-64
2023/05/18 04:34:48;;;;;;;;;;;;;;;6.10;100.00;102794.03;10540636;28;20287;-64
2023/05/18 04:39:50;;;;;;;;;;;;;;;6.42;99.60;102800.72;10544225;22;19966;-63
2023/05/18 04:44:53;;;;;;;;;;;;;;;6.62;99.24;102810.97;10541228;28;19928;-63
2023/05/18 04:49:55;;;;;;;;;;;;;;;6.53;99.64;102809.31;10541070;28;20382;-63
2023/05/18 04:54:57;;;;;;;;;;;;;;;6.82;96.21;102798.63;10540685;28;19924;-63
2023/05/18 04:59:59;;;;;;;;;;;;;;;7.07;94.06;102799.25;10540109;28;19947;-63
2023/05/18 05:05:02;;;;;;;;;;;;;;;7.36;92.70;102794.59;10540267;28;20019;-63
2023/05/18 05:10:04;;;;;;;;;;;;;;;7.36;91.59;102802.41;10540500;28;20443;-64
2023/05/18 05:15:07;;;;;;;;;;;;;;;7.39;89.82;102811.06;10539642;28;20363;-64
2023/05/18 05:20:10;;;;;;;;;;;;;;;7.38;90.32;102814.56;10540109;28;20010;-63
2023/05/18 05:25:12;;;;;;;;;;;;;;;7.39;86.99;102805.84;10538930;28;19940;-63
2023/05/18 05:30:14;;;;;;;;;;;;;;;7.58;86.84;102810.81;10540014;28;19931;-64
2023/05/18 05:35:16;;;;;;;;;;;;;;;7.64;85.50;102810.75;10521764;28;20422;-63
2023/05/18 05:40:19;;;;;;;;;;;;;;;7.88;85.23;102811.31;10539645;28;20355;-63
2023/05/18 05:45:22;;;;;;;;;;;;;;;7.44;85.90;102811.00;10539054;28;19963;-63
2023/05/18 05:50:25;;;;;;;;;;;;;;;7.70;84.99;102805.47;10538598;28;20286;-64
2023/05/18 05:55:27;;;;;;;;;;;;;;;8.05;84.56;102798.88;10539590;28;20379;-63
2023/05/18 06:00:30;;;;;;;;;;;;;;;8.50;83.61;102809.53;10539073;28;20358;-63
2023/05/18 06:05:32;;;;;;;;;;;;;;;8.27;83.10;102809.00;10539309;28;19924;-64
2023/05/18 06:10:34;;;;;;;;;;;;;;;8.38;80.31;102810.56;10538157;28;19924;-63
2023/05/18 06:15:37;;;;;;;;;;;;;;;8.00;80.92;102809.41;10521228;28;19924;-63
2023/05/18 06:20:39;;;;;;;;;;;;;;;8.22;80.45;102811.69;10538781;28;19931;-64
2023/05/18 06:25:41;;;;;;;;;;;;;;;8.49;80.42;102810.44;10505067;28;19924;-63
2023/05/18 06:30:44;;;;;;;;;;;;;;;8.70;80.64;102798.75;10537239;28;20005;-64
2023/05/18 06:35:46;;;;;;;;;;;;;;;8.86;80.19;102815.00;10543854;28;19924;-63
2023/05/18 06:40:49;;;;;;;;;;;;;;;9.15;78.37;102813.59;10545175;28;19942;-63
2023/05/18 06:45:51;;;;;;;;;;;;;;;9.22;78.66;102811.75;10545985;28;19946;-63
2023/05/18 06:50:53;;;;;;;;;;;;;;;9.10;76.28;102818.91;10544225;28;20382;-64
2023/05/18 06:55:56;;;;;;;;;;;;;;;9.66;76.10;102818.66;10535828;28;19924;-63
2023/05/18 07:00:58;;;;;;;;;;;;;;;9.75;75.79;102821.97;10542432;28;19924;-64
2023/05/18 07:06:01;;;;;;;;;;;;;;;9.83;72.92;102820.94;10544678;28;19931;-64
2023/05/18 07:11:04;;;;;;;;;;;;;;;10.72;72.32;102831.06;10545599;28;19928;-63
2023/05/18 07:16:06;;;;;;;;;;;;;;;10.08;69.22;102829.97;10545474;28;19924;-64
2023/05/18 07:21:09;;;;;;;;;;;;;;;11.14;69.61;102832.59;10527116;28;19928;-63
2023/05/18 07:26:11;;;;;;;;;;;;;;;9.82;69.45;102827.06;10544319;28;19965;-63
2023/05/18 07:31:15;;;;;;;;;;;;;;;10.94;68.45;102839.25;10542354;28;19928;-64
2023/05/18 07:36:17;;;;;;;;;;;;;;;11.44;67.60;102844.00;10524601;28;19928;-64
2023/05/18 07:41:21;;;;;;;;;;;;;;;11.89;67.13;102846.19;10538159;28;20469;-64
2023/05/18 07:46:23;;;;;;;;;;;;;;;11.93;66.55;102843.50;10495057;28;19932;-64
2023/05/18 07:51:26;;;;;;;;;;;;;;;12.02;66.66;102851.06;10511270;28;19932;-64
2023/05/18 07:56:29;;;;;;;;;;;;;;;11.33;66.15;102848.69;10504327;28;19928;-64
2023/05/18 08:01:31;;;;;;;;;;;;;;;11.77;66.96;102851.81;10512408;28;19933;-64
2023/05/18 08:06:34;;;;;;;;;;;;;;;12.69;65.33;102839.31;10539753;28;19928;-64
2023/05/18 08:11:36;;;;;;;;;;;;;;;12.25;64.89;102855.63;10540394;28;20296;-64
2023/05/18 08:16:39;;;;;;;;;;;;;;;12.78;63.96;102853.00;10542373;28;20278;-64
2023/05/18 08:21:42;;;;;;;;;;;;;;;12.08;64.29;102854.38;10541827;28;20356;-64
2023/05/18 08:26:44;;;;;;;;;;;;;;;11.73;63.70;102854.56;10542593;28;19935;-64
2023/05/18 08:31:46;;;;;;;;;;;;;;;12.16;64.18;102855.91;10542478;28;19930;-64
2023/05/18 08:36:51;;;;;;;;;;;;;;;12.36;65.86;102850.03;10541648;28;19924;-64
2023/05/18 08:41:53;;;;;;;;;;;;;;;12.36;65.95;102847.41;10539211;28;20351;-64
2023/05/18 08:46:55;;;;;;;;;;;;;;;11.98;64.21;102837.19;10541345;28;19924;-64
2023/05/18 08:51:59;;;;;;;;;;;;;;;12.37;63.43;102835.97;10541740;28;19924;-64
2023/05/18 08:57:03;;;;;;;;;;;;;;;12.64;63.03;102835.09;10523231;28;19924;-64
2023/05/18 09:02:05;;;;;;;;;;;;;;;13.23;62.42;102832.19;10540795;28;19930;-64
2023/05/18 09:07:08;;;;;;;;;;;;;;;13.57;58.49;102826.56;10541177;28;19924;-64
2023/05/18 09:12:10;;;;;;;;;;;;;;;15.04;58.53;102819.69;10505996;28;19930;-64
2023/05/18 09:17:12;;;;;;;;;;;;;;;14.07;57.96;102825.50;10540350;28;19923;-64
2023/05/18 09:22:15;;;;;;;;;;;;;;;13.80;59.77;102819.56;10540875;28;19930;-64
2023/05/18 09:27:17;;;;;;;;;;;;;;;13.66;59.42;102810.41;10540638;28;20016;-64
2023/05/18 09:32:19;;;;;;;;;;;;;;;13.20;59.20;102812.13;10522274;28;20010;-64
2023/05/18 09:37:21;;;;;;;;;;;;;;;12.51;56.67;102810.13;10522002;28;19924;-64
2023/05/18 09:42:34;;;;;;;;;;;;;;;13.91;58.65;102809.47;10539537;28;19935;-64
2023/05/18 09:47:36;;;;;;;;;;;;;;;15.17;57.57;102803.34;10521799;28;20390;-64
2023/05/18 09:52:40;;;;;;;;;;;;;;;15.23;56.27;102798.66;10540200;28;19931;-64
2023/05/18 09:57:43;;;;;;;;;;;;;;;15.22;54.48;102798.72;10505139;28;19924;-64
2023/05/18 10:02:47;;;;;;;;;;;;;;;15.28;53.78;102795.81;10521536;28;19974;-64
2023/05/18 10:07:50;;;;;;;;;;;;;;;17.48;51.70;102785.75;10521508;28;19932;-64
2023/05/18 10:12:53;;;;;;;;;;;;;;;17.71;53.60;102782.66;10529415;28;19930;-64
2023/05/18 10:17:56;;;;;;;;;;;;;;;16.70;51.22;102788.97;10547148;28;20018;-64
2023/05/18 10:23:00;;;;;;;;;;;;;;;16.46;51.57;102783.16;10546997;28;20388;-64
2023/05/18 10:28:03;;;;;;;;;;;;;;;18.50;49.91;102780.81;10529365;28;19924;-64
2023/05/18 10:33:06;;;;;;;;;;;;;;;16.80;50.52;102771.69;10547182;28;20023;-64
2023/05/18 10:38:22;;;;;;;;;;;;;;;16.90;51.35;102772.09;10547038;28;19923;-64
2023/05/18 10:43:26;;;;;;;;;;;;;;;16.23;53.51;102765.81;10546043;28;19928;-64
2023/05/18 10:48:28;;;;;;;;;;;;;;;17.88;50.91;102770.31;10528878;28;19924;-64
2023/05/18 10:53:30;;;;;;;;;;;;;;;17.71;49.58;102760.63;10546363;28;19927;-64
2023/05/18 10:58:33;;;;;;;;;;;;;;;19.05;48.39;102744.81;10527616;28;20410;-64
2023/05/18 11:03:35;;;;;;;;;;;;;;;18.11;48.80;102759.22;10527296;28;20363;-64
2023/05/18 11:08:47;;;;;;;;;;;;;;;17.92;48.55;102747.97;10527802;28;19931;-64
2023/05/18 11:13:50;;;;;;;;;;;;;;;16.79;48.95;102746.16;10544909;28;19924;-64
2023/05/18 11:18:53;;;;;;;;;;;;;;;17.83;48.53;102736.09;10544989;28;19930;-64
2023/05/18 11:24:17;;;;;;;;;;;;;;;18.78;46.36;102726.09;10527444;28;20260;-64
2023/05/18 11:29:22;;;;;;;;;;;;;;;19.91;45.33;102730.47;10544891;28;19924;-64
2023/05/18 11:34:34;;;;;;;;;;;;;;;18.23;47.93;102733.78;10544735;28;19928;-64
2023/05/18 11:39:39;;;;;;;;;;;;;;;19.37;46.50;102724.16;10541625;28;19923;-64
2023/05/18 11:44:54;;;;;;;;;;;;;;;17.78;45.47;102728.38;10527803;28;19931;-64
2023/05/18 11:49:57;;;;;;;;;;;;;;;18.87;46.46;102721.09;10540702;28;19924;-64
2023/05/18 11:54:59;;;;;;;;;;;;;;;20.30;47.33;102720.75;10543939;28;19924;-64
2023/05/18 12:00:06;;;;;;;;;;;;;;;19.01;44.54;102714.06;10525810;28;19924;-64
2023/05/18 12:05:09;;;;;;;;;;;;;;;19.90;44.18;102707.47;10541271;28;20293;-64
2023/05/18 12:10:15;;;;;;;;;;;;;;;18.69;46.39;102700.97;10542744;28;20340;-64
2023/05/18 12:15:21;;;;;;;;;;;;;;;18.11;48.16;102700.91;10543159;28;20014;-62
2023/05/18 12:20:24;;;;;;;;;;;;;;;18.73;44.60;102697.19;10542254;28;20437;-64
2023/05/18 12:25:26;;;;;;;;;;;;;;;17.07;49.89;102695.28;10524122;28;19924;-65
2023/05/18 12:30:33;;;;;;;;;;;;;;;16.39;50.13;102690.09;10542098;28;19924;-66
2023/05/18 12:35:36;;;;;;;;;;;;;;;16.65;48.66;102688.69;10542109;28;19931;-66
2023/05/18 12:40:47;;;;;;;;;;;;;;;18.82;47.65;102680.69;10541842;28;19924;-66
2023/05/18 12:45:50;;;;;;;;;;;;;;;17.03;48.06;102687.59;10541898;28;19925;-66
2023/05/18 12:50:52;;;;;;;;;;;;;;;19.42;46.31;102671.59;10541829;28;19924;-66
2023/05/18 12:55:55;;;;;;;;;;;;;;;19.05;45.61;102678.44;10537224;28;19934;-66
2023/05/18 13:00:57;;;;;;;;;;;;;;;18.85;45.78;102679.69;10541511;28;19930;-66
2023/05/18 13:06:04;;;;;;;;;;;;;;;16.94;45.10;102683.66;10541258;28;19930;-66
2023/05/18 13:11:06;;;;;;;;;;;;;;;18.69;45.82;102666.47;10522572;28;20286;-66
2023/05/18 13:16:15;;;;;;;;;;;;;;;19.89;44.89;102664.09;10541060;28;19946;-66
2023/05/18 13:21:18;;;;;;;;;;;;;;;20.56;44.20;102658.59;10540903;28;19924;-66
2023/05/18 13:26:20;;;;;;;;;;;;;;;19.43;41.55;102654.72;10540059;28;19924;-66
2023/05/18 13:31:23;;;;;;;;;;;;;;;20.37;40.67;102650.19;10520506;28;19924;-66
2023/05/18 13:36:28;;;;;;;;;;;;;;;20.38;42.50;102649.25;10539056;28;20018;-66
2023/05/18 13:41:30;;;;;;;;;;;;;;;21.10;40.76;102644.13;10539699;28;20371;-66
2023/05/18 13:46:36;;;;;;;;;;;;;;;19.27;43.34;102630.94;10548073;28;19936;-66
2023/05/18 13:51:38;;;;;;;;;;;;;;;20.28;42.28;102637.56;10548221;28;20317;-66
2023/05/18 13:56:41;;;;;;;;;;;;;;;19.36;43.14;102623.34;10547746;28;19946;-66
2023/05/18 14:01:43;;;;;;;;;;;;;;;18.06;46.56;102623.47;10530345;28;19924;-66
2023/05/18 14:06:46;;;;;;;;;;;;;;;19.56;45.00;102611.38;10547372;28;20366;-66
2023/05/18 14:11:48;;;;;;;;;;;;;;;18.07;42.95;102600.47;10547334;28;19924;-66
2023/05/18 14:16:52;;;;;;;;;;;;;;;19.98;41.92;102599.66;10547046;28;19924;-66
2023/05/18 14:21:55;;;;;;;;;;;;;;;20.21;43.26;102587.44;10512333;28;19935;-66
2023/05/18 14:26:57;;;;;;;;;;;;;;;18.27;41.98;102588.63;10546640;28;19946;-66
2023/05/18 14:31:59;;;;;;;;;;;;;;;18.80;45.37;102589.72;10546221;28;19946;-66
2023/05/18 14:37:02;;;;;;;;;;;;;;;18.56;44.45;102585.03;10526954;28;19930;-66
2023/05/18 14:42:05;;;;;;;;;;;;;;;18.20;45.04;102583.72;10545960;28;20391;-66
2023/05/18 14:47:08;;;;;;;;;;;;;;;18.31;46.20;102595.47;10527642;28;19924;-66
2023/05/18 14:52:10;;;;;;;;;;;;;;;18.71;45.76;102587.66;10545770;28;19924;-65
2023/05/18 14:57:12;;;;;;;;;;;;;;;17.55;47.71;102596.44;10526611;28;20294;-65
2023/05/18 15:02:15;;;;;;;;;;;;;;;19.15;45.36;102580.44;10527361;28;19934;-66
2023/05/18 15:07:17;;;;;;;;;;;;;;;19.19;46.13;102576.66;10545721;28;19953;-66
2023/05/18 15:12:20;;;;;;;;;;;;;;;18.93;45.03;102576.56;10544685;28;20385;-66
2023/05/18 15:17:22;;;;;;;;;;;;;;;19.12;45.20;102574.38;10544797;28;19930;-66
2023/05/18 15:22:24;;;;;;;;;;;;;;;18.47;46.18;102579.44;10544964;28;19928;-66
2023/05/18 15:27:27;;;;;;;;;;;;;;;18.15;44.64;102580.47;10544922;28;19924;-66
2023/05/18 15:32:29;;;;;;;;;;;;;;;19.64;45.47;102570.06;10543376;28;19924;-66
2023/05/18 15:37:32;;;;;;;;;;;;;;;20.04;44.25;102567.34;10541862;28;19967;-66
2023/05/18 15:42:34;;;;;;;;;;;;;;;19.08;44.51;102562.28;10525765;28;20007;-66
2023/05/18 15:47:37;;;;;;;;;;;;;;;17.89;45.16;102568.84;10543220;28;19928;-66
2023/05/18 15:52:39;;;;;;;;;;;;;;;18.57;46.89;102564.66;10543429;28;19924;-66
2023/05/18 15:57:42;;;;;;;;;;;;;;;18.45;47.63;102558.31;10543836;28;19924;-66
2023/05/18 16:02:44;;;;;;;;;;;;;;;18.19;46.64;102558.16;10542543;28;19924;-63
2023/05/18 16:07:46;;;;;;;;;;;;;;;18.05;48.07;102552.00;10541484;28;19924;-63
2023/05/18 16:12:48;;;;;;;;;;;;;;;17.43;47.32;102551.22;10524577;28;20295;-63
2023/05/18 16:17:51;;;;;;;;;;;;;;;16.83;48.09;102551.97;10541322;28;20278;-63
2023/05/18 16:22:53;;;;;;;;;;;;;;;17.26;50.10;102549.56;10542774;28;19924;-63
2023/05/18 16:27:55;;;;;;;;;;;;;;;17.09;50.00;102547.84;10542444;28;19924;-63
2023/05/18 16:33:00;;;;;;;;;;;;;;;17.46;48.53;102548.38;10541183;28;19924;-63
2023/05/18 16:38:03;;;;;;;;;;;;;;;17.45;48.65;102544.03;10519824;28;19928;-63
2023/05/18 16:43:05;;;;;;;;;;;;;;;17.78;48.24;102545.59;10537348;28;19928;-63
2023/05/18 16:48:07;;;;;;;;;;;;;;;17.88;47.18;102537.13;10542144;28;19939;-63
2023/05/18 16:53:10;;;;;;;;;;;;;;;17.53;48.28;102548.00;10545039;22;19924;-66
2023/05/18 16:58:15;;;;;;;;;;;;;;;17.27;49.44;102548.59;10523342;28;20411;-67
2023/05/18 17:03:17;;;;;;;;;;;;;;;17.01;49.31;102547.47;10523573;28;19924;-66
2023/05/18 17:08:20;;;;;;;;;;;;;;;17.25;49.98;102544.34;10538700;28;20392;-66
2023/05/18 17:13:22;;;;;;;;;;;;;;;16.46;49.62;102538.13;10526336;28;19924;-67
2023/05/18 17:18:24;;;;;;;;;;;;;;;16.47;51.73;102538.97;10523002;28;19930;-66
2023/05/18 17:23:27;;;;;;;;;;;;;;;16.72;51.88;102539.31;10540192;28;19928;-68
2023/05/18 17:28:29;;;;;;;;;;;;;;;16.66;51.83;102530.88;10539755;28;19930;-67
2023/05/18 17:33:31;;;;;;;;;;;;;;;16.55;51.20;102528.84;10501985;28;19931;-67
2023/05/18 17:38:33;;;;;;;;;;;;;;;16.64;51.16;102527.47;10538841;28;19932;-67
2023/05/18 17:43:36;;;;;;;;;;;;;;;16.02;52.37;102529.94;10492988;28;20294;-67
2023/05/18 17:48:38;;;;;;;;;;;;;;;16.25;52.49;102534.84;10512392;28;20011;-67
2023/05/18 17:53:41;;;;;;;;;;;;;;;16.23;51.67;102528.81;10538709;28;20271;-66
2023/05/18 17:58:43;;;;;;;;;;;;;;;15.89;53.52;102529.75;10521670;28;20299;-66
2023/05/18 18:03:47;;;;;;;;;;;;;;;15.84;55.12;102527.34;10539980;28;20003;-66
2023/05/18 18:08:53;;;;;;;;;;;;;;;15.50;56.08;102525.53;10538754;28;19931;-66
2023/05/18 18:13:55;;;;;;;;;;;;;;;15.32;55.76;102522.91;10522053;28;19990;-66
2023/05/18 18:18:58;;;;;;;;;;;;;;;15.11;57.14;102529.25;10520920;28;20011;-67
2023/05/18 18:24:01;;;;;;;;;;;;;;;14.88;56.34;102531.22;10539698;28;19931;-67
2023/05/18 18:29:04;;;;;;;;;;;;;;;14.96;57.00;102533.47;10538152;28;19924;-66
2023/05/18 18:34:06;;;;;;;;;;;;;;;14.75;58.01;102540.66;10546679;28;20321;-66
2023/05/18 18:39:08;;;;;;;;;;;;;;;14.42;59.11;102539.47;10546433;28;19931;-66
2023/05/18 18:44:10;;;;;;;;;;;;;;;14.12;58.98;102544.34;10546218;28;19934;-67
2023/05/18 18:49:13;;;;;;;;;;;;;;;13.98;60.75;102542.31;10545883;28;20424;-66
2023/05/18 18:54:15;;;;;;;;;;;;;;;13.68;60.30;102540.09;10565606;28;19924;-66
2023/05/18 18:59:18;;;;;;;;;;;;;;;13.63;61.12;102551.75;10577161;28;20006;-67
2023/05/18 19:04:20;;;;;;;;;;;;;;;13.47;61.90;102554.19;10546307;28;19930;-66
2023/05/18 19:09:22;;;;;;;;;;;;;;;13.46;61.84;102555.09;10544606;28;19924;-66
2023/05/18 19:14:25;;;;;;;;;;;;;;;13.11;63.64;102563.47;10544896;28;19924;-66
2023/05/18 19:19:28;;;;;;;;;;;;;;;12.84;65.64;102568.03;10544943;28;19950;-66
2023/05/18 19:24:30;;;;;;;;;;;;;;;12.75;66.44;102560.53;10552145;28;20382;-66
2023/05/18 19:29:36;;;;;;;;;;;;;;;12.38;67.32;102557.50;10575491;28;19924;-66
2023/05/18 19:34:38;;;;;;;;;;;;;;;12.14;69.36;102567.13;10526410;28;20374;-66
2023/05/18 19:39:40;;;;;;;;;;;;;;;11.95;69.37;102577.41;10563788;28;20374;-66
2023/05/18 19:44:43;;;;;;;;;;;;;;;11.82;70.17;102576.13;10572882;28;20362;-66
2023/05/18 19:49:45;;;;;;;;;;;;;;;11.58;72.23;102581.25;10556779;28;19923;-66
2023/05/18 19:54:47;;;;;;;;;;;;;;;11.38;73.15;102587.19;10585598;28;19927;-66
2023/05/18 19:59:50;;;;;;;;;;;;;;;11.16;74.15;102581.72;10585807;28;19930;-66
2023/05/18 20:04:52;;;;;;;;;;;;;;;11.06;73.50;102586.44;10567987;28;19924;-66
2023/05/18 20:09:54;;;;;;;;;;;;;;;11.03;74.23;102585.63;10516987;28;20328;-66
2023/05/18 20:14:57;;;;;;;;;;;;;;;10.69;75.68;102589.28;10543336;28;19928;-66
2023/05/18 20:19:59;;;;;;;;;;;;;;;10.72;76.63;102584.78;10550503;28;19923;-66
2023/05/18 20:25:04;;;;;;;;;;;;;;;10.69;76.97;102595.41;10581067;28;19923;-66
2023/05/18 20:30:07;;;;;;;;;;;;;;;10.34;79.36;102594.63;10584087;28;20421;-66
2023/05/18 20:35:09;;;;;;;;;;;;;;;10.32;79.73;102588.59;10584625;28;19924;-67
2023/05/18 20:40:12;;;;;;;;;;;;;;;10.25;79.73;102589.59;10560266;28;19931;-66
2023/05/18 20:45:15;;;;;;;;;;;;;;;10.17;79.71;102594.19;10559943;28;20418;-66
2023/05/18 20:50:17;;;;;;;;;;;;;;;10.01;79.44;102607.69;10584078;28;20012;-67
2023/05/18 20:55:20;;;;;;;;;;;;;;;9.96;80.84;102614.78;10580602;28;19924;-67
2023/05/18 21:00:22;;;;;;;;;;;;;;;9.88;81.24;102614.13;10578227;28;19930;-66
2023/05/18 21:05:24;;;;;;;;;;;;;;;9.92;81.37;102625.38;10523469;28;19931;-66
2023/05/18 21:10:26;;;;;;;;;;;;;;;9.85;82.39;102620.31;10577655;28;20385;-66
2023/05/18 21:15:30;;;;;;;;;;;;;;;9.68;82.42;102619.84;10581923;28;19931;-67
2023/05/18 21:20:32;;;;;;;;;;;;;;;9.63;83.08;102624.34;10556031;28;19974;-66
2023/05/18 21:25:34;;;;;;;;;;;;;;;9.51;82.82;102633.34;10540751;28;20346;-66
2023/05/18 21:30:37;;;;;;;;;;;;;;;9.42;83.57;102623.97;10582766;28;19928;-66
2023/05/18 21:35:39;;;;;;;;;;;;;;;9.41;83.18;102621.38;10561757;28;20298;-66
2023/05/18 21:40:41;;;;;;;;;;;;;;;9.31;84.14;102618.09;10539938;28;20275;-66
2023/05/18 21:45:44;;;;;;;;;;;;;;;9.29;83.99;102623.38;10553885;28;20328;-66
2023/05/18 21:50:47;;;;;;;;;;;;;;;9.22;84.36;102624.41;10522423;28;19967;-66
2023/05/18 21:55:49;;;;;;;;;;;;;;;9.14;85.62;102631.56;10539439;28;19931;-67
2023/05/18 22:00:52;;;;;;;;;;;;;;;9.09;86.36;102629.06;10521606;28;19965;-66
2023/05/18 22:05:54;;;;;;;;;;;;;;;8.96;86.38;102638.06;10544165;28;20023;-66
2023/05/18 22:10:56;;;;;;;;;;;;;;;9.03;88.36;102646.63;10548172;28;19931;-66
2023/05/18 22:15:58;;;;;;;;;;;;;;;8.82;88.69;102640.09;10527661;28;20446;-67
2023/05/18 22:21:00;;;;;;;;;;;;;;;8.88;88.88;102635.59;10530837;28;20291;-67
2023/05/18 22:26:03;;;;;;;;;;;;;;;8.61;88.71;102629.19;10545404;28;20367;-67
2023/05/18 22:31:05;;;;;;;;;;;;;;;8.68;89.45;102632.53;10547438;28;19924;-67
2023/05/18 22:36:07;;;;;;;;;;;;;;;8.83;88.66;102639.22;10546211;28;19950;-66
2023/05/18 22:41:09;;;;;;;;;;;;;;;8.60;89.58;102640.50;10546431;28;20396;-67
2023/05/18 22:46:12;;;;;;;;;;;;;;;8.59;89.13;102633.59;10546764;28;19924;-67
2023/05/18 22:51:14;;;;;;;;;;;;;;;8.62;89.65;102636.13;10536283;28;19924;-66
2023/05/18 22:56:20;;;;;;;;;;;;;;;8.56;89.29;102641.47;10579995;28;19924;-67
2023/05/18 23:01:22;;;;;;;;;;;;;;;8.38;91.44;102640.88;10585813;28;19924;-66
2023/05/18 23:06:25;;;;;;;;;;;;;;;8.44;92.42;102636.47;10586918;28;20003;-66
2023/05/18 23:11:27;;;;;;;;;;;;;;;8.43;92.17;102638.22;10588084;28;19941;-67
2023/05/18 23:16:29;;;;;;;;;;;;;;;8.40;90.89;102634.78;10547063;28;19938;-66
2023/05/18 23:21:32;;;;;;;;;;;;;;;8.31;92.12;102628.00;10527541;28;19973;-66
2023/05/18 23:26:34;;;;;;;;;;;;;;;8.35;91.89;102633.16;10545260;28;19999;-66
2023/05/18 23:31:36;;;;;;;;;;;;;;;8.53;90.95;102626.72;10584236;28;20278;-66
2023/05/18 23:36:41;;;;;;;;;;;;;;;8.29;92.37;102621.97;10584426;28;19930;-66
2023/05/18 23:41:43;;;;;;;;;;;;;;;8.13;94.56;102632.66;10551279;28;19924;-67
2023/05/18 23:46:46;;;;;;;;;;;;;;;7.95;96.08;102628.63;10526498;28;19928;-66
2023/05/18 23:51:49;;;;;;;;;;;;;;;8.10;94.97;102624.00;10544263;28;19924;-67
2023/05/18 23:56:52;;;;;;;;;;;;;;;8.14;94.81;102618.72;10499408;28;19931;-66
